sensor_id;sensor_type;location;lat;lon;timestamp;temperature;humidity
39493;DHT22;25176;51.060;3.720;2023-11-19T00:00:26;14.10;99.90
39493;DHT22;25176;51.060;3.720;2023-11-19T00:02:52;14.10;99.90
39493;DHT22;25176;51.060;3.720;2023-11-19T00:05:18;14.10;99.90
39493;DHT22;25176;51.060;3.720;2023-11-19T00:07:43;14.10;99.90
39493;DHT22;25176;51.060;3.720;2023-11-19T00:10:10;14.10;99.90
39493;DHT22;25176;51.060;3.720;2023-11-19T00:12:40;14.00;99.90
39493;DHT22;25176;51.060;3.720;2023-11-19T00:15:06;14.00;99.90
39493;DHT22;25176;51.060;3.720;2023-11-19T00:17:37;14.00;99.90
39493;DHT22;25176;51.060;3.720;2023-11-19T00:20:03;13.90;99.90
39493;DHT22;25176;51.060;3.720;2023-11-19T00:22:31;13.90;99.90
39493;DHT22;25176;51.060;3.720;2023-11-19T00:24:56;13.90;99.90
39493;DHT22;25176;51.060;3.720;2023-11-19T00:27:22;13.90;99.90
39493;DHT22;25176;51.060;3.720;2023-11-19T00:29:47;13.90;99.90
39493;DHT22;25176;51.060;3.720;2023-11-19T00:32:13;13.80;99.90
39493;DHT22;25176;51.060;3.720;2023-11-19T00:34:38;13.80;99.90
39493;DHT22;25176;51.060;3.720;2023-11-19T00:37:04;13.80;99.90
39493;DHT22;25176;51.060;3.720;2023-11-19T00:39:29;13.80;99.90
39493;DHT22;25176;51.060;3.720;2023-11-19T00:41:55;13.80;99.90
39493;DHT22;25176;51.060;3.720;2023-11-19T00:44:20;13.80;99.90
39493;DHT22;25176;51.060;3.720;2023-11-19T00:46:47;13.80;99.90
39493;DHT22;25176;51.060;3.720;2023-11-19T00:49:12;13.80;99.90
39493;DHT22;25176;51.060;3.720;2023-11-19T00:51:38;13.80;99.90
39493;DHT22;25176;51.060;3.720;2023-11-19T00:54:03;13.90;99.90
39493;DHT22;25176;51.060;3.720;2023-11-19T00:56:29;13.90;99.90
39493;DHT22;25176;51.060;3.720;2023-11-19T00:58:54;13.80;99.90
39493;DHT22;25176;51.060;3.720;2023-11-19T01:01:21;13.90;99.90
39493;DHT22;25176;51.060;3.720;2023-11-19T01:03:47;14.00;99.90
39493;DHT22;25176;51.060;3.720;2023-11-19T01:06:12;14.10;99.90
39493;DHT22;25176;51.060;3.720;2023-11-19T01:08:39;14.00;99.90
39493;DHT22;25176;51.060;3.720;2023-11-19T01:11:04;13.80;99.90
39493;DHT22;25176;51.060;3.720;2023-11-19T01:13:30;13.80;99.90
39493;DHT22;25176;51.060;3.720;2023-11-19T01:15:55;13.70;99.90
39493;DHT22;25176;51.060;3.720;2023-11-19T01:18:21;13.70;99.90
39493;DHT22;25176;51.060;3.720;2023-11-19T01:20:47;13.60;99.90
39493;DHT22;25176;51.060;3.720;2023-11-19T01:23:12;13.70;99.90
39493;DHT22;25176;51.060;3.720;2023-11-19T01:25:38;13.70;99.90
39493;DHT22;25176;51.060;3.720;2023-11-19T01:28:03;13.70;99.90
39493;DHT22;25176;51.060;3.720;2023-11-19T01:30:29;13.70;99.90
39493;DHT22;25176;51.060;3.720;2023-11-19T01:32:56;13.60;99.90
39493;DHT22;25176;51.060;3.720;2023-11-19T01:35:21;13.60;99.90
39493;DHT22;25176;51.060;3.720;2023-11-19T01:37:48;13.60;99.90
39493;DHT22;25176;51.060;3.720;2023-11-19T01:40:13;13.60;99.90
39493;DHT22;25176;51.060;3.720;2023-11-19T01:42:40;13.60;99.90
39493;DHT22;25176;51.060;3.720;2023-11-19T01:45:06;13.50;99.90
39493;DHT22;25176;51.060;3.720;2023-11-19T01:47:32;13.40;99.90
39493;DHT22;25176;51.060;3.720;2023-11-19T01:49:58;13.40;99.90
39493;DHT22;25176;51.060;3.720;2023-11-19T01:52:24;13.50;99.90
39493;DHT22;25176;51.060;3.720;2023-11-19T01:54:50;13.50;99.90
39493;DHT22;25176;51.060;3.720;2023-11-19T01:57:17;13.50;99.90
39493;DHT22;25176;51.060;3.720;2023-11-19T01:59:43;13.40;99.90
39493;DHT22;25176;51.060;3.720;2023-11-19T02:02:09;13.40;99.90
39493;DHT22;25176;51.060;3.720;2023-11-19T02:04:35;13.40;99.90
39493;DHT22;25176;51.060;3.720;2023-11-19T02:07:01;13.40;99.90
39493;DHT22;25176;51.060;3.720;2023-11-19T02:09:26;13.40;99.90
39493;DHT22;25176;51.060;3.720;2023-11-19T02:11:52;13.30;99.90
39493;DHT22;25176;51.060;3.720;2023-11-19T02:14:19;13.30;99.90
39493;DHT22;25176;51.060;3.720;2023-11-19T02:16:48;13.30;99.90
39493;DHT22;25176;51.060;3.720;2023-11-19T02:19:14;13.30;99.90
39493;DHT22;25176;51.060;3.720;2023-11-19T02:21:39;13.30;99.90
39493;DHT22;25176;51.060;3.720;2023-11-19T02:24:07;13.30;99.90
39493;DHT22;25176;51.060;3.720;2023-11-19T02:26:42;13.30;99.90
39493;DHT22;25176;51.060;3.720;2023-11-19T02:29:09;13.20;99.90
39493;DHT22;25176;51.060;3.720;2023-11-19T02:31:35;13.20;99.90
39493;DHT22;25176;51.060;3.720;2023-11-19T02:34:01;13.20;99.90
39493;DHT22;25176;51.060;3.720;2023-11-19T02:36:27;13.20;99.90
39493;DHT22;25176;51.060;3.720;2023-11-19T02:38:53;13.20;99.90
39493;DHT22;25176;51.060;3.720;2023-11-19T02:41:18;13.30;99.90
39493;DHT22;25176;51.060;3.720;2023-11-19T02:43:44;13.20;99.90
39493;DHT22;25176;51.060;3.720;2023-11-19T02:46:10;13.30;99.90
39493;DHT22;25176;51.060;3.720;2023-11-19T02:48:36;13.30;99.90
39493;DHT22;25176;51.060;3.720;2023-11-19T02:51:04;13.30;99.90
39493;DHT22;25176;51.060;3.720;2023-11-19T02:53:34;13.30;99.90
39493;DHT22;25176;51.060;3.720;2023-11-19T02:56:00;13.40;99.90
39493;DHT22;25176;51.060;3.720;2023-11-19T02:58:37;13.30;99.90
39493;DHT22;25176;51.060;3.720;2023-11-19T03:01:03;13.20;99.90
39493;DHT22;25176;51.060;3.720;2023-11-19T03:03:38;13.20;99.90
39493;DHT22;25176;51.060;3.720;2023-11-19T03:06:05;13.20;99.90
39493;DHT22;25176;51.060;3.720;2023-11-19T03:08:31;13.20;99.90
39493;DHT22;25176;51.060;3.720;2023-11-19T03:10:57;13.20;99.90
39493;DHT22;25176;51.060;3.720;2023-11-19T03:13:24;13.20;99.90
39493;DHT22;25176;51.060;3.720;2023-11-19T03:15:49;13.20;99.90
39493;DHT22;25176;51.060;3.720;2023-11-19T03:18:15;13.20;99.90
39493;DHT22;25176;51.060;3.720;2023-11-19T03:20:40;13.20;99.90
39493;DHT22;25176;51.060;3.720;2023-11-19T03:23:06;13.30;99.90
39493;DHT22;25176;51.060;3.720;2023-11-19T03:25:34;13.20;99.90
39493;DHT22;25176;51.060;3.720;2023-11-19T03:28:01;13.10;99.90
39493;DHT22;25176;51.060;3.720;2023-11-19T03:30:28;13.10;99.90
39493;DHT22;25176;51.060;3.720;2023-11-19T03:32:54;13.10;99.90
39493;DHT22;25176;51.060;3.720;2023-11-19T03:35:19;13.00;99.90
39493;DHT22;25176;51.060;3.720;2023-11-19T03:37:45;13.00;99.90
39493;DHT22;25176;51.060;3.720;2023-11-19T03:40:11;12.90;99.90
39493;DHT22;25176;51.060;3.720;2023-11-19T03:42:37;12.90;99.90
39493;DHT22;25176;51.060;3.720;2023-11-19T03:45:07;12.80;99.90
39493;DHT22;25176;51.060;3.720;2023-11-19T03:47:36;12.80;99.90
39493;DHT22;25176;51.060;3.720;2023-11-19T03:50:02;12.80;99.90
39493;DHT22;25176;51.060;3.720;2023-11-19T03:52:27;12.80;99.90
39493;DHT22;25176;51.060;3.720;2023-11-19T03:54:53;12.80;99.90
39493;DHT22;25176;51.060;3.720;2023-11-19T03:57:20;12.70;99.90
39493;DHT22;25176;51.060;3.720;2023-11-19T03:59:46;12.70;99.90
39493;DHT22;25176;51.060;3.720;2023-11-19T04:02:12;12.70;99.90
39493;DHT22;25176;51.060;3.720;2023-11-19T04:04:37;12.70;99.90
39493;DHT22;25176;51.060;3.720;2023-11-19T04:07:04;12.70;99.90
39493;DHT22;25176;51.060;3.720;2023-11-19T04:09:30;12.70;99.90
39493;DHT22;25176;51.060;3.720;2023-11-19T04:11:58;12.70;99.90
39493;DHT22;25176;51.060;3.720;2023-11-19T04:14:24;12.70;99.90
39493;DHT22;25176;51.060;3.720;2023-11-19T04:16:50;12.60;99.90
39493;DHT22;25176;51.060;3.720;2023-11-19T04:19:16;12.70;99.90
39493;DHT22;25176;51.060;3.720;2023-11-19T04:21:42;12.60;99.90
39493;DHT22;25176;51.060;3.720;2023-11-19T04:24:08;12.60;99.90
39493;DHT22;25176;51.060;3.720;2023-11-19T04:26:34;12.60;99.90
39493;DHT22;25176;51.060;3.720;2023-11-19T04:28:59;12.60;99.90
39493;DHT22;25176;51.060;3.720;2023-11-19T04:31:29;12.50;99.90
39493;DHT22;25176;51.060;3.720;2023-11-19T04:33:54;12.50;99.90
39493;DHT22;25176;51.060;3.720;2023-11-19T04:36:20;12.50;99.90
39493;DHT22;25176;51.060;3.720;2023-11-19T04:38:49;12.50;99.90
39493;DHT22;25176;51.060;3.720;2023-11-19T04:41:15;12.50;99.90
39493;DHT22;25176;51.060;3.720;2023-11-19T04:43:40;12.50;99.90
39493;DHT22;25176;51.060;3.720;2023-11-19T04:46:06;12.40;99.90
39493;DHT22;25176;51.060;3.720;2023-11-19T04:48:31;12.40;99.90
39493;DHT22;25176;51.060;3.720;2023-11-19T04:50:57;12.40;99.90
39493;DHT22;25176;51.060;3.720;2023-11-19T04:53:22;12.40;99.90
39493;DHT22;25176;51.060;3.720;2023-11-19T04:55:48;12.40;99.90
39493;DHT22;25176;51.060;3.720;2023-11-19T04:58:13;12.40;99.90
39493;DHT22;25176;51.060;3.720;2023-11-19T05:00:39;12.30;99.90
39493;DHT22;25176;51.060;3.720;2023-11-19T05:03:04;12.40;99.90
39493;DHT22;25176;51.060;3.720;2023-11-19T05:05:30;12.40;99.90
39493;DHT22;25176;51.060;3.720;2023-11-19T05:07:55;12.40;99.90
39493;DHT22;25176;51.060;3.720;2023-11-19T05:10:21;12.40;99.90
39493;DHT22;25176;51.060;3.720;2023-11-19T05:12:46;12.40;99.90
39493;DHT22;25176;51.060;3.720;2023-11-19T05:15:12;12.40;99.90
39493;DHT22;25176;51.060;3.720;2023-11-19T05:17:38;12.30;99.90
39493;DHT22;25176;51.060;3.720;2023-11-19T05:20:04;12.30;99.90
39493;DHT22;25176;51.060;3.720;2023-11-19T05:22:30;12.30;99.90
39493;DHT22;25176;51.060;3.720;2023-11-19T05:24:55;12.30;99.90
39493;DHT22;25176;51.060;3.720;2023-11-19T05:27:21;12.40;99.90
39493;DHT22;25176;51.060;3.720;2023-11-19T05:29:49;12.40;99.90
39493;DHT22;25176;51.060;3.720;2023-11-19T05:32:14;12.40;99.90
39493;DHT22;25176;51.060;3.720;2023-11-19T05:34:40;12.40;99.90
39493;DHT22;25176;51.060;3.720;2023-11-19T05:37:05;12.30;99.90
39493;DHT22;25176;51.060;3.720;2023-11-19T05:39:31;12.40;99.90
39493;DHT22;25176;51.060;3.720;2023-11-19T05:41:56;12.40;99.90
39493;DHT22;25176;51.060;3.720;2023-11-19T05:44:22;12.40;99.90
39493;DHT22;25176;51.060;3.720;2023-11-19T05:46:47;12.40;99.90
39493;DHT22;25176;51.060;3.720;2023-11-19T05:49:12;12.30;99.90
39493;DHT22;25176;51.060;3.720;2023-11-19T05:51:38;12.30;99.90
39493;DHT22;25176;51.060;3.720;2023-11-19T05:54:05;12.30;99.90
39493;DHT22;25176;51.060;3.720;2023-11-19T05:56:32;12.40;99.90
39493;DHT22;25176;51.060;3.720;2023-11-19T05:58:58;12.30;99.90
39493;DHT22;25176;51.060;3.720;2023-11-19T06:01:25;12.20;99.90
39493;DHT22;25176;51.060;3.720;2023-11-19T06:03:51;12.20;99.90
39493;DHT22;25176;51.060;3.720;2023-11-19T06:06:17;12.10;99.90
39493;DHT22;25176;51.060;3.720;2023-11-19T06:08:43;12.10;99.90
39493;DHT22;25176;51.060;3.720;2023-11-19T06:11:09;12.10;99.90
39493;DHT22;25176;51.060;3.720;2023-11-19T06:13:40;12.00;99.90
39493;DHT22;25176;51.060;3.720;2023-11-19T06:16:05;12.00;99.90
39493;DHT22;25176;51.060;3.720;2023-11-19T06:18:31;12.00;99.90
39493;DHT22;25176;51.060;3.720;2023-11-19T06:20:56;12.00;99.90
39493;DHT22;25176;51.060;3.720;2023-11-19T06:23:22;12.00;99.90
39493;DHT22;25176;51.060;3.720;2023-11-19T06:25:47;11.90;99.90
39493;DHT22;25176;51.060;3.720;2023-11-19T06:28:13;12.00;99.90
39493;DHT22;25176;51.060;3.720;2023-11-19T06:30:38;12.00;99.90
39493;DHT22;25176;51.060;3.720;2023-11-19T06:33:04;12.00;99.90
39493;DHT22;25176;51.060;3.720;2023-11-19T06:35:29;12.00;99.90
39493;DHT22;25176;51.060;3.720;2023-11-19T06:38:02;12.00;99.90
39493;DHT22;25176;51.060;3.720;2023-11-19T06:40:28;12.00;99.90
39493;DHT22;25176;51.060;3.720;2023-11-19T06:42:55;12.00;99.90
39493;DHT22;25176;51.060;3.720;2023-11-19T06:45:20;12.00;99.90
39493;DHT22;25176;51.060;3.720;2023-11-19T06:47:46;11.90;99.90
39493;DHT22;25176;51.060;3.720;2023-11-19T06:50:11;11.90;99.90
39493;DHT22;25176;51.060;3.720;2023-11-19T06:52:37;11.90;99.90
39493;DHT22;25176;51.060;3.720;2023-11-19T06:55:03;11.90;99.90
39493;DHT22;25176;51.060;3.720;2023-11-19T06:57:29;11.90;99.90
39493;DHT22;25176;51.060;3.720;2023-11-19T06:59:57;11.90;99.90
39493;DHT22;25176;51.060;3.720;2023-11-19T07:02:22;11.90;99.90
39493;DHT22;25176;51.060;3.720;2023-11-19T07:04:48;12.00;99.90
39493;DHT22;25176;51.060;3.720;2023-11-19T07:07:13;11.90;99.90
39493;DHT22;25176;51.060;3.720;2023-11-19T07:09:40;11.90;99.90
39493;DHT22;25176;51.060;3.720;2023-11-19T07:12:05;11.90;99.90
39493;DHT22;25176;51.060;3.720;2023-11-19T07:14:31;11.90;99.90
39493;DHT22;25176;51.060;3.720;2023-11-19T07:16:56;11.80;99.90
39493;DHT22;25176;51.060;3.720;2023-11-19T07:19:22;11.80;99.90
39493;DHT22;25176;51.060;3.720;2023-11-19T07:21:48;11.80;99.90
39493;DHT22;25176;51.060;3.720;2023-11-19T07:24:13;11.80;99.90
39493;DHT22;25176;51.060;3.720;2023-11-19T07:26:43;11.80;99.90
39493;DHT22;25176;51.060;3.720;2023-11-19T07:29:09;11.80;99.90
39493;DHT22;25176;51.060;3.720;2023-11-19T07:31:34;11.90;99.90
39493;DHT22;25176;51.060;3.720;2023-11-19T07:34:00;12.00;99.90
39493;DHT22;25176;51.060;3.720;2023-11-19T07:36:25;12.10;99.90
39493;DHT22;25176;51.060;3.720;2023-11-19T07:38:52;12.10;99.90
39493;DHT22;25176;51.060;3.720;2023-11-19T07:41:18;12.10;99.90
39493;DHT22;25176;51.060;3.720;2023-11-19T07:43:45;12.10;99.90
39493;DHT22;25176;51.060;3.720;2023-11-19T07:46:12;12.10;99.90
39493;DHT22;25176;51.060;3.720;2023-11-19T07:48:40;12.00;99.90
39493;DHT22;25176;51.060;3.720;2023-11-19T07:51:06;12.00;99.90
39493;DHT22;25176;51.060;3.720;2023-11-19T07:53:31;12.00;99.90
39493;DHT22;25176;51.060;3.720;2023-11-19T07:55:58;12.10;99.90
39493;DHT22;25176;51.060;3.720;2023-11-19T07:58:25;12.10;99.90
39493;DHT22;25176;51.060;3.720;2023-11-19T08:00:51;12.00;99.90
39493;DHT22;25176;51.060;3.720;2023-11-19T08:03:17;12.10;99.90
39493;DHT22;25176;51.060;3.720;2023-11-19T08:05:44;12.10;99.90
39493;DHT22;25176;51.060;3.720;2023-11-19T08:08:10;12.10;99.90
39493;DHT22;25176;51.060;3.720;2023-11-19T08:10:35;12.20;99.90
39493;DHT22;25176;51.060;3.720;2023-11-19T08:13:01;12.40;99.90
39493;DHT22;25176;51.060;3.720;2023-11-19T08:15:27;12.60;99.90
39493;DHT22;25176;51.060;3.720;2023-11-19T08:17:52;12.70;99.90
39493;DHT22;25176;51.060;3.720;2023-11-19T08:20:18;12.70;99.90
39493;DHT22;25176;51.060;3.720;2023-11-19T08:22:44;12.80;99.90
39493;DHT22;25176;51.060;3.720;2023-11-19T08:25:09;12.80;99.90
39493;DHT22;25176;51.060;3.720;2023-11-19T08:27:35;13.00;99.90
39493;DHT22;25176;51.060;3.720;2023-11-19T08:30:00;13.10;99.90
39493;DHT22;25176;51.060;3.720;2023-11-19T08:32:26;13.20;99.90
39493;DHT22;25176;51.060;3.720;2023-11-19T08:34:52;13.30;99.90
39493;DHT22;25176;51.060;3.720;2023-11-19T08:37:17;13.40;99.90
39493;DHT22;25176;51.060;3.720;2023-11-19T08:39:47;13.40;99.90
39493;DHT22;25176;51.060;3.720;2023-11-19T08:42:13;13.50;99.90
39493;DHT22;25176;51.060;3.720;2023-11-19T08:44:38;13.60;99.90
39493;DHT22;25176;51.060;3.720;2023-11-19T08:47:04;13.70;99.90
39493;DHT22;25176;51.060;3.720;2023-11-19T08:49:30;14.00;99.90
39493;DHT22;25176;51.060;3.720;2023-11-19T08:51:55;14.10;99.90
39493;DHT22;25176;51.060;3.720;2023-11-19T08:54:20;14.00;99.90
39493;DHT22;25176;51.060;3.720;2023-11-19T08:56:48;14.10;99.90
39493;DHT22;25176;51.060;3.720;2023-11-19T08:59:13;14.20;99.90
39493;DHT22;25176;51.060;3.720;2023-11-19T09:01:40;14.30;99.90
39493;DHT22;25176;51.060;3.720;2023-11-19T09:04:06;14.30;99.90
39493;DHT22;25176;51.060;3.720;2023-11-19T09:06:32;14.20;99.90
39493;DHT22;25176;51.060;3.720;2023-11-19T09:08:57;14.30;99.90
39493;DHT22;25176;51.060;3.720;2023-11-19T09:11:26;14.20;99.90
39493;DHT22;25176;51.060;3.720;2023-11-19T09:13:52;14.20;99.90
39493;DHT22;25176;51.060;3.720;2023-11-19T09:16:18;14.20;99.90
39493;DHT22;25176;51.060;3.720;2023-11-19T09:18:43;14.20;99.90
39493;DHT22;25176;51.060;3.720;2023-11-19T09:21:10;14.10;99.90
39493;DHT22;25176;51.060;3.720;2023-11-19T09:23:35;14.10;99.90
39493;DHT22;25176;51.060;3.720;2023-11-19T09:26:10;14.00;99.90
39493;DHT22;25176;51.060;3.720;2023-11-19T09:28:35;13.90;99.90
39493;DHT22;25176;51.060;3.720;2023-11-19T09:31:01;13.70;99.90
39493;DHT22;25176;51.060;3.720;2023-11-19T09:33:30;13.60;99.90
39493;DHT22;25176;51.060;3.720;2023-11-19T09:35:55;13.40;99.90
39493;DHT22;25176;51.060;3.720;2023-11-19T09:38:20;13.40;99.90
39493;DHT22;25176;51.060;3.720;2023-11-19T09:40:46;13.70;99.90
39493;DHT22;25176;51.060;3.720;2023-11-19T09:43:13;14.00;99.90
39493;DHT22;25176;51.060;3.720;2023-11-19T09:45:45;14.60;99.90
39493;DHT22;25176;51.060;3.720;2023-11-19T09:48:13;15.10;99.90
39493;DHT22;25176;51.060;3.720;2023-11-19T09:50:38;15.50;99.90
39493;DHT22;25176;51.060;3.720;2023-11-19T09:53:04;15.70;99.90
39493;DHT22;25176;51.060;3.720;2023-11-19T09:55:30;15.80;99.90
39493;DHT22;25176;51.060;3.720;2023-11-19T09:57:56;15.60;99.90
39493;DHT22;25176;51.060;3.720;2023-11-19T10:00:24;15.40;99.90
39493;DHT22;25176;51.060;3.720;2023-11-19T10:02:50;15.10;99.90
39493;DHT22;25176;51.060;3.720;2023-11-19T10:05:16;15.10;99.90
39493;DHT22;25176;51.060;3.720;2023-11-19T10:07:42;14.90;99.90
39493;DHT22;25176;51.060;3.720;2023-11-19T10:10:09;14.60;99.90
39493;DHT22;25176;51.060;3.720;2023-11-19T10:12:39;14.50;99.90
39493;DHT22;25176;51.060;3.720;2023-11-19T10:15:05;14.50;99.90
39493;DHT22;25176;51.060;3.720;2023-11-19T10:17:35;14.40;99.90
39493;DHT22;25176;51.060;3.720;2023-11-19T10:20:00;14.30;99.90
39493;DHT22;25176;51.060;3.720;2023-11-19T10:22:27;14.30;99.90
39493;DHT22;25176;51.060;3.720;2023-11-19T10:24:52;14.10;99.90
39493;DHT22;25176;51.060;3.720;2023-11-19T10:27:18;14.10;99.90
39493;DHT22;25176;51.060;3.720;2023-11-19T10:29:44;14.10;99.90
39493;DHT22;25176;51.060;3.720;2023-11-19T10:32:10;14.10;99.90
39493;DHT22;25176;51.060;3.720;2023-11-19T10:34:37;14.00;99.90
39493;DHT22;25176;51.060;3.720;2023-11-19T10:37:05;14.10;99.90
39493;DHT22;25176;51.060;3.720;2023-11-19T10:42:15;14.40;99.90
39493;DHT22;25176;51.060;3.720;2023-11-19T10:44:41;14.50;99.90
39493;DHT22;25176;51.060;3.720;2023-11-19T10:47:08;14.50;99.90
39493;DHT22;25176;51.060;3.720;2023-11-19T10:49:34;14.50;99.90
39493;DHT22;25176;51.060;3.720;2023-11-19T10:52:00;14.50;99.90
39493;DHT22;25176;51.060;3.720;2023-11-19T10:54:27;14.50;99.90
39493;DHT22;25176;51.060;3.720;2023-11-19T10:56:58;14.40;99.90
39493;DHT22;25176;51.060;3.720;2023-11-19T10:59:24;14.30;99.90
39493;DHT22;25176;51.060;3.720;2023-11-19T11:01:52;14.30;99.90
39493;DHT22;25176;51.060;3.720;2023-11-19T11:04:24;14.30;99.90
39493;DHT22;25176;51.060;3.720;2023-11-19T11:06:54;14.30;99.90
39493;DHT22;25176;51.060;3.720;2023-11-19T11:09:19;14.40;99.90
39493;DHT22;25176;51.060;3.720;2023-11-19T11:11:46;14.30;99.90
39493;DHT22;25176;51.060;3.720;2023-11-19T11:14:12;14.30;99.90
39493;DHT22;25176;51.060;3.720;2023-11-19T11:16:38;14.40;99.90
39493;DHT22;25176;51.060;3.720;2023-11-19T11:19:05;14.40;99.90
39493;DHT22;25176;51.060;3.720;2023-11-19T11:21:30;14.40;99.90
39493;DHT22;25176;51.060;3.720;2023-11-19T11:37:23;14.30;99.90
39493;DHT22;25176;51.060;3.720;2023-11-19T11:39:51;14.40;99.90
39493;DHT22;25176;51.060;3.720;2023-11-19T11:50:20;14.30;99.90
39493;DHT22;25176;51.060;3.720;2023-11-19T11:57:49;14.00;99.90
39493;DHT22;25176;51.060;3.720;2023-11-19T12:00:21;14.10;99.90
39493;DHT22;25176;51.060;3.720;2023-11-19T12:02:47;14.20;99.90
39493;DHT22;25176;51.060;3.720;2023-11-19T12:05:14;14.20;99.90
39493;DHT22;25176;51.060;3.720;2023-11-19T12:07:39;14.20;99.90
39493;DHT22;25176;51.060;3.720;2023-11-19T12:10:06;14.10;99.90
39493;DHT22;25176;51.060;3.720;2023-11-19T12:12:33;14.20;99.90
39493;DHT22;25176;51.060;3.720;2023-11-19T12:20:07;14.20;99.90
39493;DHT22;25176;51.060;3.720;2023-11-19T12:22:43;14.30;99.90
39493;DHT22;25176;51.060;3.720;2023-11-19T12:25:09;14.40;99.90
39493;DHT22;25176;51.060;3.720;2023-11-19T12:27:35;14.40;99.90
39493;DHT22;25176;51.060;3.720;2023-11-19T12:30:01;14.50;99.90
39493;DHT22;25176;51.060;3.720;2023-11-19T12:32:42;14.40;99.90
39493;DHT22;25176;51.060;3.720;2023-11-19T12:35:09;14.40;99.90
39493;DHT22;25176;51.060;3.720;2023-11-19T12:37:43;14.40;99.90
39493;DHT22;25176;51.060;3.720;2023-11-19T12:42:38;14.20;99.90
39493;DHT22;25176;51.060;3.720;2023-11-19T12:45:04;14.10;99.90
39493;DHT22;25176;51.060;3.720;2023-11-19T12:47:30;14.00;99.90
39493;DHT22;25176;51.060;3.720;2023-11-19T12:49:56;14.00;99.90
39493;DHT22;25176;51.060;3.720;2023-11-19T12:52:21;14.00;99.90
39493;DHT22;25176;51.060;3.720;2023-11-19T12:54:48;14.00;99.90
39493;DHT22;25176;51.060;3.720;2023-11-19T12:57:14;14.00;99.90
39493;DHT22;25176;51.060;3.720;2023-11-19T12:59:40;14.10;99.90
39493;DHT22;25176;51.060;3.720;2023-11-19T13:02:05;14.00;99.90
39493;DHT22;25176;51.060;3.720;2023-11-19T13:04:32;14.00;99.90
39493;DHT22;25176;51.060;3.720;2023-11-19T13:07:00;13.90;99.90
39493;DHT22;25176;51.060;3.720;2023-11-19T13:09:29;13.80;99.90
39493;DHT22;25176;51.060;3.720;2023-11-19T13:11:55;13.90;99.90
39493;DHT22;25176;51.060;3.720;2023-11-19T13:14:21;13.90;99.90
39493;DHT22;25176;51.060;3.720;2023-11-19T13:16:47;13.90;99.90
39493;DHT22;25176;51.060;3.720;2023-11-19T13:19:16;13.90;99.90
39493;DHT22;25176;51.060;3.720;2023-11-19T13:21:41;14.00;99.90
39493;DHT22;25176;51.060;3.720;2023-11-19T13:24:07;14.00;99.90
39493;DHT22;25176;51.060;3.720;2023-11-19T13:26:33;14.00;99.90
39493;DHT22;25176;51.060;3.720;2023-11-19T13:28:59;14.00;99.90
39493;DHT22;25176;51.060;3.720;2023-11-19T13:31:25;14.10;99.90
39493;DHT22;25176;51.060;3.720;2023-11-19T13:33:51;14.10;99.90
39493;DHT22;25176;51.060;3.720;2023-11-19T13:36:16;14.10;99.90
39493;DHT22;25176;51.060;3.720;2023-11-19T13:38:42;14.00;99.90
39493;DHT22;25176;51.060;3.720;2023-11-19T13:41:09;14.10;99.90
39493;DHT22;25176;51.060;3.720;2023-11-19T13:43:36;14.10;99.90
39493;DHT22;25176;51.060;3.720;2023-11-19T13:46:02;14.10;99.90
39493;DHT22;25176;51.060;3.720;2023-11-19T13:48:28;14.00;99.90
39493;DHT22;25176;51.060;3.720;2023-11-19T13:50:54;14.00;99.90
39493;DHT22;25176;51.060;3.720;2023-11-19T13:53:20;14.00;99.90
39493;DHT22;25176;51.060;3.720;2023-11-19T13:55:45;13.90;99.90
39493;DHT22;25176;51.060;3.720;2023-11-19T13:58:11;13.90;99.90
39493;DHT22;25176;51.060;3.720;2023-11-19T14:00:37;13.80;99.90
39493;DHT22;25176;51.060;3.720;2023-11-19T14:03:02;13.80;99.90
39493;DHT22;25176;51.060;3.720;2023-11-19T14:05:28;13.70;99.90
39493;DHT22;25176;51.060;3.720;2023-11-19T14:07:53;13.80;99.90
39493;DHT22;25176;51.060;3.720;2023-11-19T14:10:21;13.70;99.90
39493;DHT22;25176;51.060;3.720;2023-11-19T14:12:47;13.70;99.90
39493;DHT22;25176;51.060;3.720;2023-11-19T14:15:12;13.70;99.90
39493;DHT22;25176;51.060;3.720;2023-11-19T14:17:39;13.60;99.90
39493;DHT22;25176;51.060;3.720;2023-11-19T14:20:05;13.60;99.90
39493;DHT22;25176;51.060;3.720;2023-11-19T14:22:44;13.50;99.90
39493;DHT22;25176;51.060;3.720;2023-11-19T14:25:10;13.40;99.90
39493;DHT22;25176;51.060;3.720;2023-11-19T14:27:36;13.40;99.90
39493;DHT22;25176;51.060;3.720;2023-11-19T14:30:03;13.40;99.90
39493;DHT22;25176;51.060;3.720;2023-11-19T14:32:30;13.40;99.90
39493;DHT22;25176;51.060;3.720;2023-11-19T14:34:56;13.50;99.90
39493;DHT22;25176;51.060;3.720;2023-11-19T14:37:21;13.50;99.90
39493;DHT22;25176;51.060;3.720;2023-11-19T14:39:47;13.40;99.90
39493;DHT22;25176;51.060;3.720;2023-11-19T14:42:12;13.50;99.90
39493;DHT22;25176;51.060;3.720;2023-11-19T14:44:39;13.50;99.90
39493;DHT22;25176;51.060;3.720;2023-11-19T14:47:05;13.50;99.90
39493;DHT22;25176;51.060;3.720;2023-11-19T14:49:30;13.50;99.90
39493;DHT22;25176;51.060;3.720;2023-11-19T14:51:56;13.40;99.90
39493;DHT22;25176;51.060;3.720;2023-11-19T14:54:21;13.50;99.90
39493;DHT22;25176;51.060;3.720;2023-11-19T14:56:47;13.50;99.90
39493;DHT22;25176;51.060;3.720;2023-11-19T14:59:12;13.50;99.90
39493;DHT22;25176;51.060;3.720;2023-11-19T15:01:38;13.50;99.90
39493;DHT22;25176;51.060;3.720;2023-11-19T15:04:04;13.50;99.90
39493;DHT22;25176;51.060;3.720;2023-11-19T15:06:30;13.50;99.90
39493;DHT22;25176;51.060;3.720;2023-11-19T15:08:56;13.50;99.90
39493;DHT22;25176;51.060;3.720;2023-11-19T15:11:22;13.50;99.90
39493;DHT22;25176;51.060;3.720;2023-11-19T15:13:48;13.50;99.90
39493;DHT22;25176;51.060;3.720;2023-11-19T15:16:14;13.50;99.90
39493;DHT22;25176;51.060;3.720;2023-11-19T15:18:40;13.40;99.90
39493;DHT22;25176;51.060;3.720;2023-11-19T15:21:06;13.40;99.90
39493;DHT22;25176;51.060;3.720;2023-11-19T15:23:32;13.40;99.90
39493;DHT22;25176;51.060;3.720;2023-11-19T15:25:57;13.40;99.90
39493;DHT22;25176;51.060;3.720;2023-11-19T15:28:23;13.40;99.90
39493;DHT22;25176;51.060;3.720;2023-11-19T15:30:48;13.40;99.90
39493;DHT22;25176;51.060;3.720;2023-11-19T15:33:14;13.30;99.90
39493;DHT22;25176;51.060;3.720;2023-11-19T15:35:40;13.30;99.90
39493;DHT22;25176;51.060;3.720;2023-11-19T15:38:06;13.40;99.90
39493;DHT22;25176;51.060;3.720;2023-11-19T15:40:35;13.30;99.90
39493;DHT22;25176;51.060;3.720;2023-11-19T15:43:00;13.30;99.90
39493;DHT22;25176;51.060;3.720;2023-11-19T15:45:27;13.20;99.90
39493;DHT22;25176;51.060;3.720;2023-11-19T15:47:52;13.20;99.90
39493;DHT22;25176;51.060;3.720;2023-11-19T15:50:18;13.30;99.90
39493;DHT22;25176;51.060;3.720;2023-11-19T15:52:43;13.20;99.90
39493;DHT22;25176;51.060;3.720;2023-11-19T15:55:10;13.30;99.90
39493;DHT22;25176;51.060;3.720;2023-11-19T15:57:37;13.30;99.90
39493;DHT22;25176;51.060;3.720;2023-11-19T16:00:03;13.30;99.90